EDDK

Cologne Bonn Airport

Cologne, Germany
METAR EDDK 231450Z 01005KT 9999 FEW032 SCT110 22/16 Q1018 NOSIG
Observed Flight Rules
May-23 @ 14:50 UTC (15 minutes ago) Visual Flight Rules
Wind Visibility Clouds
10° at 5 knots 10,000+ meters
  • Few at 3,200' AGL
  • Scattered at 11,000' AGL
Temperatures Readings
Current 22°C / 72°F
Dewpoint 16°C / 61°F
Humidity 69%
Altimeter 30.06" Hg
Pressure 1018 hPa
Elevation 99
METAR EDDK 231450Z 01005KT 9999 FEW032 SCT110 22/16 Q1018 NOSIG
Observed Flight Rules
May-23 @ 14:50 UTC
(15 minutes ago)
VFR
Wind Visibility
10° at 5 knots 10,000+ meters
Clouds
  • Few at 3,200' AGL
  • Scattered at 11,000' AGL
Temperature Dewpoint
22°C / 72°F 16°C / 61°F
Humidity Altimeter Pressure
69% 30.06" Hg 1018 hPa